Etusivu
METAR-TAF:

METAR-TAF

Lentoasemat :

Sandnessjøen, Norja

Leveyspiiri: 65-58N, Pituuspiiri: 012-28E, korkeus merenpinnasta: 1 m

Tämänhetkinen sää

Tämä raportti tehtiin 6 tuntia ja 45 minuuttia sitten, kello 21.20 UTC
Tuuli 10 kn lounaasta
Lämpötila 0°C
Kosteus 86%
Ilmanpaine 996 hPa
Näkyvyys: 4000 m
Muutamia pilviä 800 ft:n korkeudessa
Hajanaisia pilviä 1200 ft:n korkeudessa, Cumulonimbus.
Hajonneita pilviä 2500 ft:n korkeudessa
sadekuuroja näköpiirissä

METAR: ENST 242120Z 22010KT 9999 4000W VCSH FEW008 SCT012CB BKN025 00/M02 Q0996 RMK WIND 300FT 24011KT

Aika: 05:05 (04:05 UTC)


TAF: puuttuu

Säähavainnot ja -ennusteet yli 4000 lentoasemalta (METAR- ja TAF-raportit).

Käytössä olevat sääasemat on merkitty karttaan keltaisilla ja punaisilla pisteillä.

Aseta hiiri pisteen päälle nähdäksesi sääaseman nimen.

Klikkaa sitten nähdäksesi säähavainnot ja -ennusteet.

Kartan vaihtaminen: klikkaa mustalla rastilla varustettuja vihreitä pisteitä, niin voit zoomata sisään; viivalla varustettua vihreää pistettä, niin voit zoomata ulos tai vihreitä nuolia, niin pääset viereisille kartoille.


METAR-TAF: